sensor_id;sensor_type;location;lat;lon;timestamp;temperature;humidity
61807;DHT22;47726;52.766;6.606;2022-11-15T00:00:42;8.90;99.90
61807;DHT22;47726;52.766;6.606;2022-11-15T00:03:07;8.90;99.90
61807;DHT22;47726;52.766;6.606;2022-11-15T00:05:35;8.80;99.90
61807;DHT22;47726;52.766;6.606;2022-11-15T00:08:01;8.80;99.90
61807;DHT22;47726;52.766;6.606;2022-11-15T00:10:27;8.80;99.90
61807;DHT22;47726;52.766;6.606;2022-11-15T00:12:52;8.90;99.90
61807;DHT22;47726;52.766;6.606;2022-11-15T00:15:18;8.80;99.90
61807;DHT22;47726;52.766;6.606;2022-11-15T00:17:43;8.80;99.90
61807;DHT22;47726;52.766;6.606;2022-11-15T00:20:09;8.80;99.90
61807;DHT22;47726;52.766;6.606;2022-11-15T00:22:35;8.80;99.90
61807;DHT22;47726;52.766;6.606;2022-11-15T00:25:00;8.80;99.90
61807;DHT22;47726;52.766;6.606;2022-11-15T00:27:27;8.80;99.90
61807;DHT22;47726;52.766;6.606;2022-11-15T00:29:52;8.80;99.90
61807;DHT22;47726;52.766;6.606;2022-11-15T00:32:18;8.80;99.90
61807;DHT22;47726;52.766;6.606;2022-11-15T00:34:44;8.80;99.90
61807;DHT22;47726;52.766;6.606;2022-11-15T00:37:09;8.80;99.90
61807;DHT22;47726;52.766;6.606;2022-11-15T00:39:35;8.80;99.90
61807;DHT22;47726;52.766;6.606;2022-11-15T00:42:00;8.80;99.90
61807;DHT22;47726;52.766;6.606;2022-11-15T00:44:26;8.80;99.90
61807;DHT22;47726;52.766;6.606;2022-11-15T00:46:52;8.80;99.90
61807;DHT22;47726;52.766;6.606;2022-11-15T00:49:17;8.80;99.90
61807;DHT22;47726;52.766;6.606;2022-11-15T00:51:43;8.80;99.90
61807;DHT22;47726;52.766;6.606;2022-11-15T00:54:08;8.80;99.90
61807;DHT22;47726;52.766;6.606;2022-11-15T00:56:34;8.80;99.90
61807;DHT22;47726;52.766;6.606;2022-11-15T00:58:59;8.80;99.90
61807;DHT22;47726;52.766;6.606;2022-11-15T01:01:25;8.80;99.90
61807;DHT22;47726;52.766;6.606;2022-11-15T01:03:50;8.80;99.90
61807;DHT22;47726;52.766;6.606;2022-11-15T01:06:16;8.80;99.90
61807;DHT22;47726;52.766;6.606;2022-11-15T01:08:42;8.80;99.90
61807;DHT22;47726;52.766;6.606;2022-11-15T01:11:10;8.80;99.90
61807;DHT22;47726;52.766;6.606;2022-11-15T01:13:37;8.80;99.90
61807;DHT22;47726;52.766;6.606;2022-11-15T01:16:14;8.80;99.90
61807;DHT22;47726;52.766;6.606;2022-11-15T01:18:40;8.80;99.90
61807;DHT22;47726;52.766;6.606;2022-11-15T01:21:11;8.80;99.90
61807;DHT22;47726;52.766;6.606;2022-11-15T01:23:37;8.80;99.90
61807;DHT22;47726;52.766;6.606;2022-11-15T01:26:06;8.80;99.90
61807;DHT22;47726;52.766;6.606;2022-11-15T01:28:33;8.80;99.90
61807;DHT22;47726;52.766;6.606;2022-11-15T01:31:00;8.80;99.90
61807;DHT22;47726;52.766;6.606;2022-11-15T01:33:27;8.80;99.90
61807;DHT22;47726;52.766;6.606;2022-11-15T01:35:53;8.80;99.90
61807;DHT22;47726;52.766;6.606;2022-11-15T01:38:19;8.80;99.90
61807;DHT22;47726;52.766;6.606;2022-11-15T01:40:45;8.80;99.90
61807;DHT22;47726;52.766;6.606;2022-11-15T01:45:55;8.80;99.90
61807;DHT22;47726;52.766;6.606;2022-11-15T01:48:22;8.80;99.90
61807;DHT22;47726;52.766;6.606;2022-11-15T01:50:50;8.80;99.90
61807;DHT22;47726;52.766;6.606;2022-11-15T01:53:17;8.90;99.90
61807;DHT22;47726;52.766;6.606;2022-11-15T01:55:44;8.80;99.90
61807;DHT22;47726;52.766;6.606;2022-11-15T01:58:10;8.90;99.90
61807;DHT22;47726;52.766;6.606;2022-11-15T02:00:36;8.80;99.90
61807;DHT22;47726;52.766;6.606;2022-11-15T02:03:02;8.90;99.90
61807;DHT22;47726;52.766;6.606;2022-11-15T02:05:28;8.90;99.90
61807;DHT22;47726;52.766;6.606;2022-11-15T02:07:55;8.90;99.90
61807;DHT22;47726;52.766;6.606;2022-11-15T02:10:23;8.90;99.90
61807;DHT22;47726;52.766;6.606;2022-11-15T02:12:49;8.90;99.90
61807;DHT22;47726;52.766;6.606;2022-11-15T02:15:16;8.90;99.90
61807;DHT22;47726;52.766;6.606;2022-11-15T02:20:39;8.90;99.90
61807;DHT22;47726;52.766;6.606;2022-11-15T02:34:25;8.90;99.90
61807;DHT22;47726;52.766;6.606;2022-11-15T02:37:11;8.90;99.90
61807;DHT22;47726;52.766;6.606;2022-11-15T02:42:38;8.90;99.90
61807;DHT22;47726;52.766;6.606;2022-11-15T02:45:31;8.90;99.90
61807;DHT22;47726;52.766;6.606;2022-11-15T02:47:59;8.90;99.90
61807;DHT22;47726;52.766;6.606;2022-11-15T02:50:29;8.90;99.90
61807;DHT22;47726;52.766;6.606;2022-11-15T02:52:55;8.90;99.90
61807;DHT22;47726;52.766;6.606;2022-11-15T02:55:31;8.90;99.90
61807;DHT22;47726;52.766;6.606;2022-11-15T03:01:03;9.00;99.90
61807;DHT22;47726;52.766;6.606;2022-11-15T03:11:42;9.00;99.90
61807;DHT22;47726;52.766;6.606;2022-11-15T03:14:29;9.00;99.90
61807;DHT22;47726;52.766;6.606;2022-11-15T03:17:21;9.00;99.90
61807;DHT22;47726;52.766;6.606;2022-11-15T03:19:54;9.00;99.90
61807;DHT22;47726;52.766;6.606;2022-11-15T03:22:22;9.00;99.90
61807;DHT22;47726;52.766;6.606;2022-11-15T03:24:53;9.00;99.90
61807;DHT22;47726;52.766;6.606;2022-11-15T03:27:23;9.00;99.90
61807;DHT22;47726;52.766;6.606;2022-11-15T03:29:54;9.00;99.90
61807;DHT22;47726;52.766;6.606;2022-11-15T03:32:28;9.00;99.90
61807;DHT22;47726;52.766;6.606;2022-11-15T03:35:06;9.10;99.90
61807;DHT22;47726;52.766;6.606;2022-11-15T03:40:22;9.10;99.90
61807;DHT22;47726;52.766;6.606;2022-11-15T03:43:00;9.10;99.90
61807;DHT22;47726;52.766;6.606;2022-11-15T03:45:32;9.10;99.90
61807;DHT22;47726;52.766;6.606;2022-11-15T03:48:01;9.10;99.90
61807;DHT22;47726;52.766;6.606;2022-11-15T03:50:28;9.10;99.90
61807;DHT22;47726;52.766;6.606;2022-11-15T03:52:55;9.10;99.90
61807;DHT22;47726;52.766;6.606;2022-11-15T03:55:22;9.10;99.90
61807;DHT22;47726;52.766;6.606;2022-11-15T03:57:51;9.10;99.90
61807;DHT22;47726;52.766;6.606;2022-11-15T04:00:18;9.10;99.90
61807;DHT22;47726;52.766;6.606;2022-11-15T04:02:44;9.10;99.90
61807;DHT22;47726;52.766;6.606;2022-11-15T04:05:09;9.10;99.90
61807;DHT22;47726;52.766;6.606;2022-11-15T04:07:35;9.20;99.90
61807;DHT22;47726;52.766;6.606;2022-11-15T04:10:01;9.20;99.90
61807;DHT22;47726;52.766;6.606;2022-11-15T04:12:32;9.20;99.90
61807;DHT22;47726;52.766;6.606;2022-11-15T04:15:05;9.20;99.90
61807;DHT22;47726;52.766;6.606;2022-11-15T04:17:46;9.20;99.90
61807;DHT22;47726;52.766;6.606;2022-11-15T04:20:18;9.20;99.90
61807;DHT22;47726;52.766;6.606;2022-11-15T04:23:06;9.20;99.90
61807;DHT22;47726;52.766;6.606;2022-11-15T04:25:52;9.20;99.90
61807;DHT22;47726;52.766;6.606;2022-11-15T04:28:18;9.20;99.90
61807;DHT22;47726;52.766;6.606;2022-11-15T04:30:43;9.30;99.90
61807;DHT22;47726;52.766;6.606;2022-11-15T04:33:09;9.30;99.90
61807;DHT22;47726;52.766;6.606;2022-11-15T04:35:35;9.30;99.90
61807;DHT22;47726;52.766;6.606;2022-11-15T04:38:04;9.30;99.90
61807;DHT22;47726;52.766;6.606;2022-11-15T04:40:29;9.30;99.90
61807;DHT22;47726;52.766;6.606;2022-11-15T04:42:55;9.30;99.90
61807;DHT22;47726;52.766;6.606;2022-11-15T04:45:21;9.30;99.90
61807;DHT22;47726;52.766;6.606;2022-11-15T04:47:47;9.30;99.90
61807;DHT22;47726;52.766;6.606;2022-11-15T04:50:13;9.40;99.90
61807;DHT22;47726;52.766;6.606;2022-11-15T04:52:41;9.40;99.90
61807;DHT22;47726;52.766;6.606;2022-11-15T04:55:08;9.40;99.90
61807;DHT22;47726;52.766;6.606;2022-11-15T04:57:34;9.40;99.90
61807;DHT22;47726;52.766;6.606;2022-11-15T04:59:59;9.40;99.90
61807;DHT22;47726;52.766;6.606;2022-11-15T05:02:25;9.40;99.90
61807;DHT22;47726;52.766;6.606;2022-11-15T05:05:10;9.40;99.90
61807;DHT22;47726;52.766;6.606;2022-11-15T05:07:36;9.40;99.90
61807;DHT22;47726;52.766;6.606;2022-11-15T05:10:01;9.50;99.90
61807;DHT22;47726;52.766;6.606;2022-11-15T05:12:27;9.50;99.90
61807;DHT22;47726;52.766;6.606;2022-11-15T05:14:52;9.50;99.90
61807;DHT22;47726;52.766;6.606;2022-11-15T05:17:18;9.50;99.90
61807;DHT22;47726;52.766;6.606;2022-11-15T05:19:43;9.50;99.90
61807;DHT22;47726;52.766;6.606;2022-11-15T05:22:10;9.50;99.90
61807;DHT22;47726;52.766;6.606;2022-11-15T05:24:35;9.50;99.90
61807;DHT22;47726;52.766;6.606;2022-11-15T05:27:01;9.60;99.90
61807;DHT22;47726;52.766;6.606;2022-11-15T05:29:26;9.60;99.90
61807;DHT22;47726;52.766;6.606;2022-11-15T05:31:52;9.60;99.90
61807;DHT22;47726;52.766;6.606;2022-11-15T05:34:18;9.60;99.90
61807;DHT22;47726;52.766;6.606;2022-11-15T05:36:44;9.60;99.90
61807;DHT22;47726;52.766;6.606;2022-11-15T05:39:11;9.60;99.90
61807;DHT22;47726;52.766;6.606;2022-11-15T05:41:47;9.70;99.90
61807;DHT22;47726;52.766;6.606;2022-11-15T05:44:15;9.70;99.90
61807;DHT22;47726;52.766;6.606;2022-11-15T05:46:42;9.70;99.90
61807;DHT22;47726;52.766;6.606;2022-11-15T05:49:11;9.70;99.90
61807;DHT22;47726;52.766;6.606;2022-11-15T05:51:38;9.70;99.90
61807;DHT22;47726;52.766;6.606;2022-11-15T05:54:04;9.70;99.90
61807;DHT22;47726;52.766;6.606;2022-11-15T05:56:30;9.70;99.90
61807;DHT22;47726;52.766;6.606;2022-11-15T05:58:56;9.80;99.90
61807;DHT22;47726;52.766;6.606;2022-11-15T06:01:24;9.80;99.90
61807;DHT22;47726;52.766;6.606;2022-11-15T06:03:50;9.80;99.90
61807;DHT22;47726;52.766;6.606;2022-11-15T06:06:15;9.80;99.90
61807;DHT22;47726;52.766;6.606;2022-11-15T06:08:41;9.80;99.90
61807;DHT22;47726;52.766;6.606;2022-11-15T06:11:07;9.90;99.90
61807;DHT22;47726;52.766;6.606;2022-11-15T06:13:33;9.90;99.90
61807;DHT22;47726;52.766;6.606;2022-11-15T06:15:59;9.90;99.90
61807;DHT22;47726;52.766;6.606;2022-11-15T06:18:25;9.90;99.90
61807;DHT22;47726;52.766;6.606;2022-11-15T06:20:51;9.90;99.90
61807;DHT22;47726;52.766;6.606;2022-11-15T06:23:17;9.90;99.90
61807;DHT22;47726;52.766;6.606;2022-11-15T06:25:43;10.00;99.90
61807;DHT22;47726;52.766;6.606;2022-11-15T06:28:08;10.00;99.90
61807;DHT22;47726;52.766;6.606;2022-11-15T06:30:34;10.00;99.90
61807;DHT22;47726;52.766;6.606;2022-11-15T06:33:04;10.00;99.90
61807;DHT22;47726;52.766;6.606;2022-11-15T06:35:32;10.00;99.90
61807;DHT22;47726;52.766;6.606;2022-11-15T06:38:04;10.00;99.90
61807;DHT22;47726;52.766;6.606;2022-11-15T06:40:29;10.10;99.90
61807;DHT22;47726;52.766;6.606;2022-11-15T06:42:59;10.10;99.90
61807;DHT22;47726;52.766;6.606;2022-11-15T06:45:25;10.10;99.90
61807;DHT22;47726;52.766;6.606;2022-11-15T06:47:51;10.10;99.90
61807;DHT22;47726;52.766;6.606;2022-11-15T06:50:16;10.10;99.90
61807;DHT22;47726;52.766;6.606;2022-11-15T06:52:42;10.10;99.90
61807;DHT22;47726;52.766;6.606;2022-11-15T06:55:08;10.10;99.90
61807;DHT22;47726;52.766;6.606;2022-11-15T06:57:34;10.20;99.90
61807;DHT22;47726;52.766;6.606;2022-11-15T07:00:00;10.20;99.90
61807;DHT22;47726;52.766;6.606;2022-11-15T07:02:26;10.20;99.90
61807;DHT22;47726;52.766;6.606;2022-11-15T07:04:51;10.20;99.90
61807;DHT22;47726;52.766;6.606;2022-11-15T07:07:17;10.20;99.90
61807;DHT22;47726;52.766;6.606;2022-11-15T07:09:42;10.20;99.90
61807;DHT22;47726;52.766;6.606;2022-11-15T07:12:08;10.30;99.90
61807;DHT22;47726;52.766;6.606;2022-11-15T07:14:33;10.30;99.90
61807;DHT22;47726;52.766;6.606;2022-11-15T07:16:59;10.30;99.90
61807;DHT22;47726;52.766;6.606;2022-11-15T07:19:25;10.30;99.90
61807;DHT22;47726;52.766;6.606;2022-11-15T07:21:51;10.30;99.90
61807;DHT22;47726;52.766;6.606;2022-11-15T07:24:16;10.30;99.90
61807;DHT22;47726;52.766;6.606;2022-11-15T07:26:42;10.30;99.90
61807;DHT22;47726;52.766;6.606;2022-11-15T07:29:07;10.30;99.90
61807;DHT22;47726;52.766;6.606;2022-11-15T07:31:33;10.30;99.90
61807;DHT22;47726;52.766;6.606;2022-11-15T07:33:59;10.40;99.90
61807;DHT22;47726;52.766;6.606;2022-11-15T07:36:24;10.40;99.90
61807;DHT22;47726;52.766;6.606;2022-11-15T07:38:50;10.40;99.90
61807;DHT22;47726;52.766;6.606;2022-11-15T07:41:16;10.40;99.90
61807;DHT22;47726;52.766;6.606;2022-11-15T07:43:41;10.40;99.90
61807;DHT22;47726;52.766;6.606;2022-11-15T07:46:08;10.40;99.90
61807;DHT22;47726;52.766;6.606;2022-11-15T07:48:35;10.50;99.90
61807;DHT22;47726;52.766;6.606;2022-11-15T07:51:01;10.40;99.90
61807;DHT22;47726;52.766;6.606;2022-11-15T07:53:27;10.40;99.90
61807;DHT22;47726;52.766;6.606;2022-11-15T07:55:53;10.50;99.90
61807;DHT22;47726;52.766;6.606;2022-11-15T07:58:19;10.50;99.90
61807;DHT22;47726;52.766;6.606;2022-11-15T08:00:45;10.50;99.90
61807;DHT22;47726;52.766;6.606;2022-11-15T08:03:14;10.50;99.90
61807;DHT22;47726;52.766;6.606;2022-11-15T08:05:41;10.50;99.90
61807;DHT22;47726;52.766;6.606;2022-11-15T08:08:08;10.50;99.90
61807;DHT22;47726;52.766;6.606;2022-11-15T10:41:42;11.50;99.90
61807;DHT22;47726;52.766;6.606;2022-11-15T10:47:03;11.70;99.90
61807;DHT22;47726;52.766;6.606;2022-11-15T10:49:30;11.80;99.90
61807;DHT22;47726;52.766;6.606;2022-11-15T10:52:00;11.80;99.90
61807;DHT22;47726;52.766;6.606;2022-11-15T10:54:48;11.90;99.90
61807;DHT22;47726;52.766;6.606;2022-11-15T10:57:17;12.10;99.90
61807;DHT22;47726;52.766;6.606;2022-11-15T10:59:52;12.20;99.90
61807;DHT22;47726;52.766;6.606;2022-11-15T11:02:31;12.20;99.90
61807;DHT22;47726;52.766;6.606;2022-11-15T11:04:58;12.30;99.90
61807;DHT22;47726;52.766;6.606;2022-11-15T11:07:27;12.40;99.90
61807;DHT22;47726;52.766;6.606;2022-11-15T11:12:33;12.60;99.90
61807;DHT22;47726;52.766;6.606;2022-11-15T11:15:10;12.60;99.90
61807;DHT22;47726;52.766;6.606;2022-11-15T11:31:05;13.00;99.90
61807;DHT22;47726;52.766;6.606;2022-11-15T11:36:22;13.00;99.90
61807;DHT22;47726;52.766;6.606;2022-11-15T11:41:55;13.10;99.90
61807;DHT22;47726;52.766;6.606;2022-11-15T11:47:06;13.00;99.90
61807;DHT22;47726;52.766;6.606;2022-11-15T11:49:48;13.00;99.90
61807;DHT22;47726;52.766;6.606;2022-11-15T11:55:04;13.00;99.90
61807;DHT22;47726;52.766;6.606;2022-11-15T12:00:33;13.00;99.90
61807;DHT22;47726;52.766;6.606;2022-11-15T12:03:11;13.00;99.90
61807;DHT22;47726;52.766;6.606;2022-11-15T12:05:48;13.10;99.90
61807;DHT22;47726;52.766;6.606;2022-11-15T12:08:53;13.10;99.90
61807;DHT22;47726;52.766;6.606;2022-11-15T12:12:00;13.10;99.90
61807;DHT22;47726;52.766;6.606;2022-11-15T12:16:55;13.20;99.90
61807;DHT22;47726;52.766;6.606;2022-11-15T12:19:20;13.20;99.90
61807;DHT22;47726;52.766;6.606;2022-11-15T12:27:38;13.30;99.90
61807;DHT22;47726;52.766;6.606;2022-11-15T12:30:15;13.40;99.90
61807;DHT22;47726;52.766;6.606;2022-11-15T12:35:37;13.50;99.90
61807;DHT22;47726;52.766;6.606;2022-11-15T12:38:04;13.50;99.90
61807;DHT22;47726;52.766;6.606;2022-11-15T12:40:39;13.50;99.90
61807;DHT22;47726;52.766;6.606;2022-11-15T12:46:03;13.50;99.90
61807;DHT22;47726;52.766;6.606;2022-11-15T12:51:02;13.50;99.90
61807;DHT22;47726;52.766;6.606;2022-11-15T12:53:29;13.50;99.90
61807;DHT22;47726;52.766;6.606;2022-11-15T13:12:00;13.40;99.90
61807;DHT22;47726;52.766;6.606;2022-11-15T13:14:50;13.40;99.90
61807;DHT22;47726;52.766;6.606;2022-11-15T13:19:46;13.30;99.90
61807;DHT22;47726;52.766;6.606;2022-11-15T13:22:12;13.30;99.90
61807;DHT22;47726;52.766;6.606;2022-11-15T13:24:57;13.30;99.90
61807;DHT22;47726;52.766;6.606;2022-11-15T13:27:24;13.20;99.90
61807;DHT22;47726;52.766;6.606;2022-11-15T13:29:51;13.20;99.90
61807;DHT22;47726;52.766;6.606;2022-11-15T13:32:18;13.20;99.90
61807;DHT22;47726;52.766;6.606;2022-11-15T13:34:49;13.20;99.90
61807;DHT22;47726;52.766;6.606;2022-11-15T13:39:48;13.20;99.90
61807;DHT22;47726;52.766;6.606;2022-11-15T13:42:19;13.10;99.90
61807;DHT22;47726;52.766;6.606;2022-11-15T13:44:58;13.10;99.90
61807;DHT22;47726;52.766;6.606;2022-11-15T13:47:26;13.10;99.90
61807;DHT22;47726;52.766;6.606;2022-11-15T13:49:52;13.10;99.90
61807;DHT22;47726;52.766;6.606;2022-11-15T13:52:19;13.10;99.90
61807;DHT22;47726;52.766;6.606;2022-11-15T13:55:05;13.10;99.90
61807;DHT22;47726;52.766;6.606;2022-11-15T13:57:54;13.10;99.90
61807;DHT22;47726;52.766;6.606;2022-11-15T14:00:32;13.00;99.90
61807;DHT22;47726;52.766;6.606;2022-11-15T14:03:16;13.00;99.90
61807;DHT22;47726;52.766;6.606;2022-11-15T14:05:43;13.00;99.90
61807;DHT22;47726;52.766;6.606;2022-11-15T14:10:42;13.00;99.90
61807;DHT22;47726;52.766;6.606;2022-11-15T14:13:31;13.00;99.90
61807;DHT22;47726;52.766;6.606;2022-11-15T14:16:14;12.90;99.90
61807;DHT22;47726;52.766;6.606;2022-11-15T14:18:47;12.90;99.90
61807;DHT22;47726;52.766;6.606;2022-11-15T14:21:14;12.90;99.90
61807;DHT22;47726;52.766;6.606;2022-11-15T14:23:42;12.90;99.90
61807;DHT22;47726;52.766;6.606;2022-11-15T14:26:30;12.80;99.90
61807;DHT22;47726;52.766;6.606;2022-11-15T14:28:56;12.80;99.90
61807;DHT22;47726;52.766;6.606;2022-11-15T14:31:22;12.80;99.90
61807;DHT22;47726;52.766;6.606;2022-11-15T14:33:51;12.70;99.90
61807;DHT22;47726;52.766;6.606;2022-11-15T14:36:19;12.70;99.90
61807;DHT22;47726;52.766;6.606;2022-11-15T14:38:45;12.70;99.90
61807;DHT22;47726;52.766;6.606;2022-11-15T14:43:45;12.70;99.90
61807;DHT22;47726;52.766;6.606;2022-11-15T14:46:11;12.60;99.90
61807;DHT22;47726;52.766;6.606;2022-11-15T14:48:36;12.60;99.90
61807;DHT22;47726;52.766;6.606;2022-11-15T14:51:02;12.60;99.90
61807;DHT22;47726;52.766;6.606;2022-11-15T14:53:28;12.60;99.90
61807;DHT22;47726;52.766;6.606;2022-11-15T14:55:54;12.60;99.90
61807;DHT22;47726;52.766;6.606;2022-11-15T14:58:19;12.60;99.90
61807;DHT22;47726;52.766;6.606;2022-11-15T15:00:45;12.50;99.90
61807;DHT22;47726;52.766;6.606;2022-11-15T15:03:10;12.50;99.90
61807;DHT22;47726;52.766;6.606;2022-11-15T15:05:42;12.50;99.90
61807;DHT22;47726;52.766;6.606;2022-11-15T15:08:08;12.40;99.90
61807;DHT22;47726;52.766;6.606;2022-11-15T15:10:37;12.50;99.90
61807;DHT22;47726;52.766;6.606;2022-11-15T15:13:03;12.50;99.90
61807;DHT22;47726;52.766;6.606;2022-11-15T15:15:38;12.40;99.90
61807;DHT22;47726;52.766;6.606;2022-11-15T15:18:04;12.40;99.90
61807;DHT22;47726;52.766;6.606;2022-11-15T15:20:34;12.40;99.90
61807;DHT22;47726;52.766;6.606;2022-11-15T15:23:00;12.40;99.90
61807;DHT22;47726;52.766;6.606;2022-11-15T15:25:31;12.40;99.90
61807;DHT22;47726;52.766;6.606;2022-11-15T15:27:58;12.40;99.90
61807;DHT22;47726;52.766;6.606;2022-11-15T15:30:25;12.30;99.90
61807;DHT22;47726;52.766;6.606;2022-11-15T15:32:51;12.30;99.90
61807;DHT22;47726;52.766;6.606;2022-11-15T15:35:17;12.30;99.90
61807;DHT22;47726;52.766;6.606;2022-11-15T15:37:45;12.30;99.90
61807;DHT22;47726;52.766;6.606;2022-11-15T15:40:14;12.30;99.90
61807;DHT22;47726;52.766;6.606;2022-11-15T15:42:41;12.30;99.90
61807;DHT22;47726;52.766;6.606;2022-11-15T15:45:08;12.20;99.90
61807;DHT22;47726;52.766;6.606;2022-11-15T15:47:33;12.20;99.90
61807;DHT22;47726;52.766;6.606;2022-11-15T15:49:59;12.20;99.90
61807;DHT22;47726;52.766;6.606;2022-11-15T15:52:25;12.20;99.90
61807;DHT22;47726;52.766;6.606;2022-11-15T15:54:50;12.20;99.90
61807;DHT22;47726;52.766;6.606;2022-11-15T15:57:16;12.20;99.90
61807;DHT22;47726;52.766;6.606;2022-11-15T15:59:42;12.20;99.90
61807;DHT22;47726;52.766;6.606;2022-11-15T16:02:14;12.10;99.90
61807;DHT22;47726;52.766;6.606;2022-11-15T16:04:39;12.10;99.90
61807;DHT22;47726;52.766;6.606;2022-11-15T16:07:05;12.10;99.90
61807;DHT22;47726;52.766;6.606;2022-11-15T16:09:31;12.00;99.90
61807;DHT22;47726;52.766;6.606;2022-11-15T16:12:15;12.00;99.90
61807;DHT22;47726;52.766;6.606;2022-11-15T16:14:42;12.00;99.90
61807;DHT22;47726;52.766;6.606;2022-11-15T16:17:14;12.00;99.90
61807;DHT22;47726;52.766;6.606;2022-11-15T16:19:42;11.90;99.90
61807;DHT22;47726;52.766;6.606;2022-11-15T16:22:07;11.90;99.90
61807;DHT22;47726;52.766;6.606;2022-11-15T16:24:33;11.90;99.90
61807;DHT22;47726;52.766;6.606;2022-11-15T16:26:59;11.90;99.90
61807;DHT22;47726;52.766;6.606;2022-11-15T16:29:24;11.90;99.90
61807;DHT22;47726;52.766;6.606;2022-11-15T16:31:50;11.80;99.90
61807;DHT22;47726;52.766;6.606;2022-11-15T16:34:16;11.80;99.90
61807;DHT22;47726;52.766;6.606;2022-11-15T16:36:41;11.80;99.90
61807;DHT22;47726;52.766;6.606;2022-11-15T16:39:11;11.80;99.90
61807;DHT22;47726;52.766;6.606;2022-11-15T16:41:39;11.80;99.90
61807;DHT22;47726;52.766;6.606;2022-11-15T16:44:05;11.70;99.90
61807;DHT22;47726;52.766;6.606;2022-11-15T16:46:30;11.70;99.90
61807;DHT22;47726;52.766;6.606;2022-11-15T16:48:56;11.70;99.90
61807;DHT22;47726;52.766;6.606;2022-11-15T16:51:22;11.70;99.90
61807;DHT22;47726;52.766;6.606;2022-11-15T16:53:48;11.70;99.90
61807;DHT22;47726;52.766;6.606;2022-11-15T16:58:48;11.70;99.90
61807;DHT22;47726;52.766;6.606;2022-11-15T17:01:28;11.60;99.90
61807;DHT22;47726;52.766;6.606;2022-11-15T17:03:55;11.60;99.90
61807;DHT22;47726;52.766;6.606;2022-11-15T17:06:21;11.60;99.90
61807;DHT22;47726;52.766;6.606;2022-11-15T17:08:47;11.60;99.90
61807;DHT22;47726;52.766;6.606;2022-11-15T17:11:21;11.60;99.90
61807;DHT22;47726;52.766;6.606;2022-11-15T17:13:47;11.60;99.90
61807;DHT22;47726;52.766;6.606;2022-11-15T17:16:15;11.60;99.90
61807;DHT22;47726;52.766;6.606;2022-11-15T17:18:41;11.50;99.90
61807;DHT22;47726;52.766;6.606;2022-11-15T17:21:15;11.60;99.90
61807;DHT22;47726;52.766;6.606;2022-11-15T17:23:41;11.50;99.90
61807;DHT22;47726;52.766;6.606;2022-11-15T17:26:09;11.60;99.90
61807;DHT22;47726;52.766;6.606;2022-11-15T17:28:36;11.60;99.90
61807;DHT22;47726;52.766;6.606;2022-11-15T17:31:08;11.50;99.90
61807;DHT22;47726;52.766;6.606;2022-11-15T17:33:34;11.50;99.90
61807;DHT22;47726;52.766;6.606;2022-11-15T17:36:03;11.50;99.90
61807;DHT22;47726;52.766;6.606;2022-11-15T17:38:29;11.50;99.90
61807;DHT22;47726;52.766;6.606;2022-11-15T17:41:13;11.50;99.90
61807;DHT22;47726;52.766;6.606;2022-11-15T17:43:39;11.50;99.90
61807;DHT22;47726;52.766;6.606;2022-11-15T17:46:12;11.50;99.90
61807;DHT22;47726;52.766;6.606;2022-11-15T17:48:38;11.50;99.90
61807;DHT22;47726;52.766;6.606;2022-11-15T17:51:06;11.50;99.90
61807;DHT22;47726;52.766;6.606;2022-11-15T17:53:33;11.40;99.90
61807;DHT22;47726;52.766;6.606;2022-11-15T17:56:11;11.50;99.90
61807;DHT22;47726;52.766;6.606;2022-11-15T17:58:37;11.40;99.90
61807;DHT22;47726;52.766;6.606;2022-11-15T18:01:09;11.50;99.90
61807;DHT22;47726;52.766;6.606;2022-11-15T18:03:37;11.40;99.90
61807;DHT22;47726;52.766;6.606;2022-11-15T18:06:04;11.40;99.90
61807;DHT22;47726;52.766;6.606;2022-11-15T18:08:31;11.40;99.90
61807;DHT22;47726;52.766;6.606;2022-11-15T18:11:08;11.40;99.90
61807;DHT22;47726;52.766;6.606;2022-11-15T18:13:35;11.40;99.90
61807;DHT22;47726;52.766;6.606;2022-11-15T18:16:03;11.40;99.90
61807;DHT22;47726;52.766;6.606;2022-11-15T18:18:33;11.40;99.90
61807;DHT22;47726;52.766;6.606;2022-11-15T18:21:22;11.40;99.90
61807;DHT22;47726;52.766;6.606;2022-11-15T18:23:51;11.40;99.90
61807;DHT22;47726;52.766;6.606;2022-11-15T18:26:17;11.40;99.90
61807;DHT22;47726;52.766;6.606;2022-11-15T18:28:45;11.40;99.90
61807;DHT22;47726;52.766;6.606;2022-11-15T18:31:14;11.40;99.90
61807;DHT22;47726;52.766;6.606;2022-11-15T18:33:40;11.40;99.90
61807;DHT22;47726;52.766;6.606;2022-11-15T18:36:08;11.40;99.90
61807;DHT22;47726;52.766;6.606;2022-11-15T18:38:34;11.40;99.90
61807;DHT22;47726;52.766;6.606;2022-11-15T18:41:16;11.40;99.90
61807;DHT22;47726;52.766;6.606;2022-11-15T18:43:54;11.30;99.90
61807;DHT22;47726;52.766;6.606;2022-11-15T18:46:22;11.30;99.90
61807;DHT22;47726;52.766;6.606;2022-11-15T18:48:49;11.30;99.90
61807;DHT22;47726;52.766;6.606;2022-11-15T18:51:26;11.30;99.90
61807;DHT22;47726;52.766;6.606;2022-11-15T18:53:55;11.30;99.90
61807;DHT22;47726;52.766;6.606;2022-11-15T18:56:23;11.30;99.90
61807;DHT22;47726;52.766;6.606;2022-11-15T18:58:52;11.30;99.90
61807;DHT22;47726;52.766;6.606;2022-11-15T19:01:19;11.30;99.90
61807;DHT22;47726;52.766;6.606;2022-11-15T19:03:47;11.30;99.90
61807;DHT22;47726;52.766;6.606;2022-11-15T19:08:41;11.30;99.90
61807;DHT22;47726;52.766;6.606;2022-11-15T19:13:33;11.30;99.90
61807;DHT22;47726;52.766;6.606;2022-11-15T19:16:00;11.30;99.90
61807;DHT22;47726;52.766;6.606;2022-11-15T19:18:26;11.30;99.90
61807;DHT22;47726;52.766;6.606;2022-11-15T19:20:52;11.30;99.90
61807;DHT22;47726;52.766;6.606;2022-11-15T19:23:19;11.30;99.90
61807;DHT22;47726;52.766;6.606;2022-11-15T19:25:56;11.30;99.90
61807;DHT22;47726;52.766;6.606;2022-11-15T19:28:23;11.30;99.90
61807;DHT22;47726;52.766;6.606;2022-11-15T19:30:50;11.30;99.90
61807;DHT22;47726;52.766;6.606;2022-11-15T19:33:16;11.30;99.90
61807;DHT22;47726;52.766;6.606;2022-11-15T19:35:42;11.30;99.90
61807;DHT22;47726;52.766;6.606;2022-11-15T19:38:07;11.30;99.90
61807;DHT22;47726;52.766;6.606;2022-11-15T19:40:33;11.30;99.90
61807;DHT22;47726;52.766;6.606;2022-11-15T19:42:59;11.30;99.90
61807;DHT22;47726;52.766;6.606;2022-11-15T19:45:24;11.30;99.90
61807;DHT22;47726;52.766;6.606;2022-11-15T19:47:50;11.30;99.90
61807;DHT22;47726;52.766;6.606;2022-11-15T19:50:16;11.30;99.90
61807;DHT22;47726;52.766;6.606;2022-11-15T19:52:42;11.30;99.90
61807;DHT22;47726;52.766;6.606;2022-11-15T19:55:08;11.30;99.90
61807;DHT22;47726;52.766;6.606;2022-11-15T19:57:33;11.30;99.90
61807;DHT22;47726;52.766;6.606;2022-11-15T19:59:59;11.30;99.90
61807;DHT22;47726;52.766;6.606;2022-11-15T20:02:25;11.30;99.90
61807;DHT22;47726;52.766;6.606;2022-11-15T20:04:50;11.30;99.90
61807;DHT22;47726;52.766;6.606;2022-11-15T20:07:17;11.30;99.90
61807;DHT22;47726;52.766;6.606;2022-11-15T20:09:42;11.30;99.90
61807;DHT22;47726;52.766;6.606;2022-11-15T20:12:08;11.30;99.90
61807;DHT22;47726;52.766;6.606;2022-11-15T20:14:34;11.30;99.90